sensor_id;sensor_type;location;lat;lon;timestamp;P1;durP1;ratioP1;P2;durP2;ratioP2
60241;SDS011;46103;52.076;113.488;2023-06-26T00:01:06;23.60;;;11.18;;
60241;SDS011;46103;52.076;113.488;2023-06-26T00:04:11;27.10;;;11.82;;
60241;SDS011;46103;52.076;113.488;2023-06-26T00:07:17;17.53;;;10.67;;
60241;SDS011;46103;52.076;113.488;2023-06-26T00:10:21;22.67;;;10.85;;
60241;SDS011;46103;52.076;113.488;2023-06-26T00:13:25;18.65;;;10.90;;
60241;SDS011;46103;52.076;113.488;2023-06-26T00:16:32;22.10;;;10.52;;
60241;SDS011;46103;52.076;113.488;2023-06-26T00:19:35;16.60;;;10.18;;
60241;SDS011;46103;52.076;113.488;2023-06-26T00:22:40;18.17;;;10.07;;
60241;SDS011;46103;52.076;113.488;2023-06-26T00:25:44;16.65;;;9.70;;
60241;SDS011;46103;52.076;113.488;2023-06-26T00:28:48;15.02;;;9.55;;
60241;SDS011;46103;52.076;113.488;2023-06-26T00:31:54;16.75;;;9.90;;
60241;SDS011;46103;52.076;113.488;2023-06-26T00:34:58;25.00;;;12.73;;
60241;SDS011;46103;52.076;113.488;2023-06-26T00:38:03;28.08;;;16.42;;
60241;SDS011;46103;52.076;113.488;2023-06-26T00:41:07;22.42;;;13.25;;
60241;SDS011;46103;52.076;113.488;2023-06-26T00:44:15;22.60;;;12.38;;
60241;SDS011;46103;52.076;113.488;2023-06-26T00:47:19;16.75;;;10.98;;
60241;SDS011;46103;52.076;113.488;2023-06-26T00:50:23;18.45;;;10.65;;
60241;SDS011;46103;52.076;113.488;2023-06-26T00:53:27;20.58;;;11.75;;
60241;SDS011;46103;52.076;113.488;2023-06-26T00:56:31;15.98;;;9.90;;
60241;SDS011;46103;52.076;113.488;2023-06-26T00:59:39;14.50;;;9.35;;
60241;SDS011;46103;52.076;113.488;2023-06-26T01:02:46;16.45;;;10.30;;
60241;SDS011;46103;52.076;113.488;2023-06-26T01:05:52;14.95;;;9.30;;
60241;SDS011;46103;52.076;113.488;2023-06-26T01:09:00;18.05;;;10.85;;
60241;SDS011;46103;52.076;113.488;2023-06-26T01:12:05;28.50;;;11.57;;
60241;SDS011;46103;52.076;113.488;2023-06-26T01:15:11;14.35;;;9.40;;
60241;SDS011;46103;52.076;113.488;2023-06-26T01:18:26;14.02;;;9.20;;
60241;SDS011;46103;52.076;113.488;2023-06-26T01:21:35;16.00;;;9.57;;
60241;SDS011;46103;52.076;113.488;2023-06-26T01:28:10;14.48;;;9.45;;
60241;SDS011;46103;52.076;113.488;2023-06-26T01:31:19;13.50;;;9.40;;
60241;SDS011;46103;52.076;113.488;2023-06-26T01:34:26;14.80;;;8.98;;
60241;SDS011;46103;52.076;113.488;2023-06-26T01:37:34;16.52;;;10.50;;
60241;SDS011;46103;52.076;113.488;2023-06-26T01:40:41;13.88;;;9.05;;
60241;SDS011;46103;52.076;113.488;2023-06-26T01:44:01;12.75;;;8.98;;
60241;SDS011;46103;52.076;113.488;2023-06-26T01:47:16;13.30;;;9.20;;
60241;SDS011;46103;52.076;113.488;2023-06-26T01:50:28;13.38;;;9.38;;
60241;SDS011;46103;52.076;113.488;2023-06-26T01:53:38;14.27;;;8.77;;
60241;SDS011;46103;52.076;113.488;2023-06-26T01:56:47;12.50;;;9.15;;
60241;SDS011;46103;52.076;113.488;2023-06-26T01:59:57;15.95;;;9.10;;
60241;SDS011;46103;52.076;113.488;2023-06-26T02:03:14;14.93;;;9.20;;
60241;SDS011;46103;52.076;113.488;2023-06-26T02:06:21;13.10;;;8.80;;
60241;SDS011;46103;52.076;113.488;2023-06-26T02:09:30;12.07;;;8.55;;
60241;SDS011;46103;52.076;113.488;2023-06-26T02:12:35;10.90;;;7.55;;
60241;SDS011;46103;52.076;113.488;2023-06-26T02:15:41;12.90;;;8.13;;
60241;SDS011;46103;52.076;113.488;2023-06-26T02:18:47;11.75;;;8.00;;
60241;SDS011;46103;52.076;113.488;2023-06-26T02:21:52;15.07;;;8.65;;
60241;SDS011;46103;52.076;113.488;2023-06-26T02:24:58;11.65;;;7.88;;
60241;SDS011;46103;52.076;113.488;2023-06-26T02:28:07;10.68;;;6.53;;
60241;SDS011;46103;52.076;113.488;2023-06-26T02:31:12;13.32;;;6.10;;
60241;SDS011;46103;52.076;113.488;2023-06-26T02:34:20;9.13;;;6.45;;
60241;SDS011;46103;52.076;113.488;2023-06-26T02:37:27;8.57;;;5.90;;
60241;SDS011;46103;52.076;113.488;2023-06-26T02:40:37;9.70;;;5.30;;
60241;SDS011;46103;52.076;113.488;2023-06-26T02:43:45;7.82;;;6.13;;
60241;SDS011;46103;52.076;113.488;2023-06-26T02:47:01;9.13;;;5.35;;
60241;SDS011;46103;52.076;113.488;2023-06-26T02:50:14;8.80;;;5.45;;
60241;SDS011;46103;52.076;113.488;2023-06-26T02:53:38;7.88;;;5.63;;
60241;SDS011;46103;52.076;113.488;2023-06-26T02:56:45;9.00;;;5.38;;
60241;SDS011;46103;52.076;113.488;2023-06-26T02:59:58;8.38;;;5.68;;
60241;SDS011;46103;52.076;113.488;2023-06-26T03:03:08;7.57;;;5.50;;
60241;SDS011;46103;52.076;113.488;2023-06-26T03:06:19;7.97;;;5.95;;
60241;SDS011;46103;52.076;113.488;2023-06-26T03:09:26;10.23;;;5.90;;
60241;SDS011;46103;52.076;113.488;2023-06-26T03:12:32;7.22;;;5.57;;
60241;SDS011;46103;52.076;113.488;2023-06-26T03:15:40;9.70;;;6.40;;
60241;SDS011;46103;52.076;113.488;2023-06-26T03:18:48;10.60;;;5.90;;
60241;SDS011;46103;52.076;113.488;2023-06-26T03:21:54;9.20;;;6.43;;
60241;SDS011;46103;52.076;113.488;2023-06-26T03:25:02;8.73;;;5.68;;
60241;SDS011;46103;52.076;113.488;2023-06-26T03:28:09;8.45;;;6.05;;
60241;SDS011;46103;52.076;113.488;2023-06-26T03:31:18;9.00;;;6.20;;
60241;SDS011;46103;52.076;113.488;2023-06-26T03:34:28;8.00;;;5.45;;
60241;SDS011;46103;52.076;113.488;2023-06-26T03:37:36;6.43;;;5.35;;
60241;SDS011;46103;52.076;113.488;2023-06-26T03:40:44;7.45;;;5.60;;
60241;SDS011;46103;52.076;113.488;2023-06-26T03:43:53;8.52;;;6.03;;
60241;SDS011;46103;52.076;113.488;2023-06-26T03:47:06;9.18;;;5.70;;
60241;SDS011;46103;52.076;113.488;2023-06-26T03:50:18;7.20;;;5.07;;
60241;SDS011;46103;52.076;113.488;2023-06-26T03:53:27;6.50;;;4.93;;
60241;SDS011;46103;52.076;113.488;2023-06-26T03:56:37;7.90;;;6.05;;
60241;SDS011;46103;52.076;113.488;2023-06-26T03:59:45;7.75;;;5.22;;
60241;SDS011;46103;52.076;113.488;2023-06-26T04:02:52;8.00;;;5.47;;
60241;SDS011;46103;52.076;113.488;2023-06-26T04:05:58;8.45;;;5.65;;
60241;SDS011;46103;52.076;113.488;2023-06-26T04:09:05;10.88;;;6.20;;
60241;SDS011;46103;52.076;113.488;2023-06-26T04:12:14;7.00;;;5.80;;
60241;SDS011;46103;52.076;113.488;2023-06-26T04:15:22;8.15;;;5.93;;
60241;SDS011;46103;52.076;113.488;2023-06-26T04:18:29;8.35;;;5.53;;
60241;SDS011;46103;52.076;113.488;2023-06-26T04:21:37;7.13;;;5.45;;
60241;SDS011;46103;52.076;113.488;2023-06-26T04:24:45;8.48;;;5.00;;
60241;SDS011;46103;52.076;113.488;2023-06-26T04:27:54;7.35;;;4.85;;
60241;SDS011;46103;52.076;113.488;2023-06-26T04:31:03;7.93;;;5.57;;
60241;SDS011;46103;52.076;113.488;2023-06-26T04:34:13;6.75;;;5.00;;
60241;SDS011;46103;52.076;113.488;2023-06-26T04:37:20;9.38;;;5.38;;
60241;SDS011;46103;52.076;113.488;2023-06-26T04:40:30;10.38;;;5.68;;
60241;SDS011;46103;52.076;113.488;2023-06-26T04:43:37;7.55;;;5.20;;
60241;SDS011;46103;52.076;113.488;2023-06-26T04:46:45;6.57;;;4.97;;
60241;SDS011;46103;52.076;113.488;2023-06-26T04:49:56;7.15;;;5.20;;
60241;SDS011;46103;52.076;113.488;2023-06-26T04:56:07;6.60;;;5.13;;
60241;SDS011;46103;52.076;113.488;2023-06-26T04:59:15;6.60;;;4.97;;
60241;SDS011;46103;52.076;113.488;2023-06-26T05:02:22;6.75;;;5.00;;
60241;SDS011;46103;52.076;113.488;2023-06-26T05:05:32;7.15;;;5.28;;
60241;SDS011;46103;52.076;113.488;2023-06-26T05:08:41;8.50;;;4.53;;
60241;SDS011;46103;52.076;113.488;2023-06-26T05:11:49;6.72;;;5.30;;
60241;SDS011;46103;52.076;113.488;2023-06-26T05:14:57;7.20;;;5.28;;
60241;SDS011;46103;52.076;113.488;2023-06-26T05:18:07;6.53;;;5.00;;
60241;SDS011;46103;52.076;113.488;2023-06-26T05:21:15;6.95;;;4.80;;
60241;SDS011;46103;52.076;113.488;2023-06-26T05:24:25;8.13;;;5.70;;
60241;SDS011;46103;52.076;113.488;2023-06-26T05:27:32;6.75;;;4.53;;
60241;SDS011;46103;52.076;113.488;2023-06-26T05:30:40;5.50;;;4.80;;
60241;SDS011;46103;52.076;113.488;2023-06-26T05:33:48;5.72;;;4.40;;
60241;SDS011;46103;52.076;113.488;2023-06-26T05:36:57;6.07;;;4.80;;
60241;SDS011;46103;52.076;113.488;2023-06-26T05:40:06;8.45;;;4.90;;
60241;SDS011;46103;52.076;113.488;2023-06-26T05:43:14;7.05;;;4.55;;
60241;SDS011;46103;52.076;113.488;2023-06-26T05:46:27;7.70;;;4.85;;
60241;SDS011;46103;52.076;113.488;2023-06-26T05:49:34;6.10;;;4.63;;
60241;SDS011;46103;52.076;113.488;2023-06-26T05:52:41;7.22;;;4.88;;
60241;SDS011;46103;52.076;113.488;2023-06-26T05:55:48;5.60;;;4.30;;
60241;SDS011;46103;52.076;113.488;2023-06-26T05:58:55;5.97;;;4.57;;
60241;SDS011;46103;52.076;113.488;2023-06-26T06:02:03;7.90;;;4.85;;
60241;SDS011;46103;52.076;113.488;2023-06-26T06:05:11;6.95;;;4.30;;
60241;SDS011;46103;52.076;113.488;2023-06-26T06:08:16;9.07;;;5.68;;
60241;SDS011;46103;52.076;113.488;2023-06-26T06:11:22;5.50;;;3.97;;
60241;SDS011;46103;52.076;113.488;2023-06-26T06:17:33;11.57;;;6.80;;
60241;SDS011;46103;52.076;113.488;2023-06-26T06:20:40;7.05;;;5.30;;
60241;SDS011;46103;52.076;113.488;2023-06-26T06:23:47;5.38;;;4.40;;
60241;SDS011;46103;52.076;113.488;2023-06-26T06:26:52;5.75;;;4.30;;
60241;SDS011;46103;52.076;113.488;2023-06-26T06:29:57;5.82;;;4.32;;
60241;SDS011;46103;52.076;113.488;2023-06-26T06:33:01;10.07;;;4.30;;
60241;SDS011;46103;52.076;113.488;2023-06-26T06:36:05;6.13;;;3.97;;
60241;SDS011;46103;52.076;113.488;2023-06-26T06:39:08;6.10;;;4.05;;
60241;SDS011;46103;52.076;113.488;2023-06-26T06:42:12;7.47;;;3.83;;
60241;SDS011;46103;52.076;113.488;2023-06-26T06:45:16;6.15;;;4.10;;
60241;SDS011;46103;52.076;113.488;2023-06-26T06:48:20;5.85;;;4.10;;
60241;SDS011;46103;52.076;113.488;2023-06-26T06:51:24;6.78;;;4.22;;
60241;SDS011;46103;52.076;113.488;2023-06-26T06:54:28;5.57;;;4.20;;
60241;SDS011;46103;52.076;113.488;2023-06-26T06:57:32;6.60;;;3.90;;
60241;SDS011;46103;52.076;113.488;2023-06-26T07:00:41;6.00;;;4.22;;
60241;SDS011;46103;52.076;113.488;2023-06-26T07:03:45;5.45;;;4.05;;
60241;SDS011;46103;52.076;113.488;2023-06-26T07:06:49;5.85;;;4.43;;
60241;SDS011;46103;52.076;113.488;2023-06-26T07:09:52;7.70;;;4.05;;
60241;SDS011;46103;52.076;113.488;2023-06-26T07:12:56;6.00;;;3.70;;
60241;SDS011;46103;52.076;113.488;2023-06-26T07:16:26;6.22;;;4.07;;
60241;SDS011;46103;52.076;113.488;2023-06-26T07:19:32;7.32;;;4.00;;
60241;SDS011;46103;52.076;113.488;2023-06-26T07:22:36;5.47;;;3.83;;
60241;SDS011;46103;52.076;113.488;2023-06-26T07:25:41;5.18;;;3.90;;
60241;SDS011;46103;52.076;113.488;2023-06-26T07:28:45;9.30;;;5.90;;
60241;SDS011;46103;52.076;113.488;2023-06-26T07:31:49;6.25;;;3.90;;
60241;SDS011;46103;52.076;113.488;2023-06-26T07:34:53;5.13;;;3.80;;
60241;SDS011;46103;52.076;113.488;2023-06-26T07:37:57;4.82;;;4.05;;
60241;SDS011;46103;52.076;113.488;2023-06-26T07:41:00;4.93;;;4.05;;
60241;SDS011;46103;52.076;113.488;2023-06-26T07:44:04;5.78;;;4.30;;
60241;SDS011;46103;52.076;113.488;2023-06-26T07:47:08;6.68;;;5.63;;
60241;SDS011;46103;52.076;113.488;2023-06-26T07:50:12;10.32;;;7.97;;
60241;SDS011;46103;52.076;113.488;2023-06-26T07:53:18;13.98;;;6.50;;
60241;SDS011;46103;52.076;113.488;2023-06-26T07:56:22;8.35;;;5.13;;
60241;SDS011;46103;52.076;113.488;2023-06-26T07:59:27;6.90;;;4.60;;
60241;SDS011;46103;52.076;113.488;2023-06-26T08:02:32;8.88;;;5.03;;
60241;SDS011;46103;52.076;113.488;2023-06-26T08:05:36;4.83;;;3.90;;
60241;SDS011;46103;52.076;113.488;2023-06-26T08:08:40;4.18;;;3.55;;
60241;SDS011;46103;52.076;113.488;2023-06-26T08:11:44;4.07;;;3.65;;
60241;SDS011;46103;52.076;113.488;2023-06-26T08:14:47;6.53;;;3.33;;
60241;SDS011;46103;52.076;113.488;2023-06-26T08:17:51;4.25;;;3.33;;
60241;SDS011;46103;52.076;113.488;2023-06-26T08:20:55;4.33;;;3.60;;
60241;SDS011;46103;52.076;113.488;2023-06-26T08:23:58;5.35;;;3.33;;
60241;SDS011;46103;52.076;113.488;2023-06-26T08:27:02;6.20;;;3.80;;
60241;SDS011;46103;52.076;113.488;2023-06-26T08:30:06;3.97;;;3.50;;
60241;SDS011;46103;52.076;113.488;2023-06-26T08:33:10;5.63;;;3.55;;
60241;SDS011;46103;52.076;113.488;2023-06-26T08:36:15;4.43;;;3.80;;
60241;SDS011;46103;52.076;113.488;2023-06-26T08:39:18;4.70;;;3.60;;
60241;SDS011;46103;52.076;113.488;2023-06-26T08:42:22;5.10;;;3.28;;
60241;SDS011;46103;52.076;113.488;2023-06-26T08:45:26;4.00;;;3.40;;
60241;SDS011;46103;52.076;113.488;2023-06-26T08:48:35;5.43;;;3.80;;
60241;SDS011;46103;52.076;113.488;2023-06-26T08:51:44;5.50;;;3.72;;
60241;SDS011;46103;52.076;113.488;2023-06-26T08:54:57;4.60;;;3.33;;
60241;SDS011;46103;52.076;113.488;2023-06-26T08:58:04;4.20;;;3.78;;
60241;SDS011;46103;52.076;113.488;2023-06-26T09:01:10;7.90;;;4.05;;
60241;SDS011;46103;52.076;113.488;2023-06-26T09:04:16;4.25;;;3.70;;
60241;SDS011;46103;52.076;113.488;2023-06-26T09:07:22;4.38;;;3.60;;
60241;SDS011;46103;52.076;113.488;2023-06-26T09:10:27;5.30;;;4.03;;
60241;SDS011;46103;52.076;113.488;2023-06-26T09:16:41;8.27;;;3.90;;
60241;SDS011;46103;52.076;113.488;2023-06-26T09:19:45;6.65;;;3.30;;
60241;SDS011;46103;52.076;113.488;2023-06-26T09:22:50;6.20;;;3.77;;
60241;SDS011;46103;52.076;113.488;2023-06-26T09:25:54;4.18;;;3.58;;
60241;SDS011;46103;52.076;113.488;2023-06-26T09:28:59;6.15;;;3.88;;
60241;SDS011;46103;52.076;113.488;2023-06-26T09:32:03;5.78;;;3.13;;
60241;SDS011;46103;52.076;113.488;2023-06-26T09:35:08;9.93;;;4.55;;
60241;SDS011;46103;52.076;113.488;2023-06-26T09:38:13;7.10;;;3.45;;
60241;SDS011;46103;52.076;113.488;2023-06-26T09:41:18;4.77;;;3.33;;
60241;SDS011;46103;52.076;113.488;2023-06-26T09:44:23;4.40;;;3.08;;
60241;SDS011;46103;52.076;113.488;2023-06-26T09:47:29;6.80;;;3.47;;
60241;SDS011;46103;52.076;113.488;2023-06-26T09:50:37;7.65;;;3.55;;
60241;SDS011;46103;52.076;113.488;2023-06-26T09:54:02;6.18;;;3.20;;
60241;SDS011;46103;52.076;113.488;2023-06-26T09:57:11;7.32;;;4.13;;
60241;SDS011;46103;52.076;113.488;2023-06-26T10:00:16;4.35;;;3.30;;
60241;SDS011;46103;52.076;113.488;2023-06-26T10:03:21;5.22;;;3.08;;
60241;SDS011;46103;52.076;113.488;2023-06-26T10:06:36;7.22;;;3.33;;
60241;SDS011;46103;52.076;113.488;2023-06-26T10:09:45;5.00;;;3.05;;
60241;SDS011;46103;52.076;113.488;2023-06-26T10:12:54;4.78;;;3.40;;
60241;SDS011;46103;52.076;113.488;2023-06-26T10:16:06;6.90;;;3.10;;
60241;SDS011;46103;52.076;113.488;2023-06-26T10:19:11;8.32;;;3.38;;
60241;SDS011;46103;52.076;113.488;2023-06-26T10:22:18;4.95;;;3.00;;
60241;SDS011;46103;52.076;113.488;2023-06-26T10:25:25;9.27;;;3.40;;
60241;SDS011;46103;52.076;113.488;2023-06-26T10:28:31;4.82;;;3.20;;
60241;SDS011;46103;52.076;113.488;2023-06-26T10:31:37;5.20;;;4.07;;
60241;SDS011;46103;52.076;113.488;2023-06-26T10:34:47;5.22;;;3.65;;
60241;SDS011;46103;52.076;113.488;2023-06-26T10:37:50;4.28;;;3.30;;
60241;SDS011;46103;52.076;113.488;2023-06-26T10:40:54;6.00;;;3.05;;
60241;SDS011;46103;52.076;113.488;2023-06-26T10:47:05;6.13;;;3.28;;
60241;SDS011;46103;52.076;113.488;2023-06-26T10:50:18;5.30;;;3.35;;
60241;SDS011;46103;52.076;113.488;2023-06-26T10:53:25;5.93;;;3.60;;
60241;SDS011;46103;52.076;113.488;2023-06-26T10:56:41;5.30;;;2.83;;
60241;SDS011;46103;52.076;113.488;2023-06-26T10:59:45;4.72;;;3.00;;
60241;SDS011;46103;52.076;113.488;2023-06-26T11:02:52;5.07;;;2.55;;
60241;SDS011;46103;52.076;113.488;2023-06-26T11:06:08;3.60;;;2.47;;
60241;SDS011;46103;52.076;113.488;2023-06-26T11:09:14;8.38;;;2.83;;
60241;SDS011;46103;52.076;113.488;2023-06-26T11:12:37;3.65;;;2.95;;
60241;SDS011;46103;52.076;113.488;2023-06-26T11:15:47;5.85;;;2.60;;
60241;SDS011;46103;52.076;113.488;2023-06-26T11:18:53;4.60;;;3.10;;
60241;SDS011;46103;52.076;113.488;2023-06-26T11:22:02;5.30;;;3.10;;
60241;SDS011;46103;52.076;113.488;2023-06-26T11:25:08;7.85;;;3.28;;
60241;SDS011;46103;52.076;113.488;2023-06-26T11:28:21;5.82;;;2.97;;
60241;SDS011;46103;52.076;113.488;2023-06-26T11:31:25;4.57;;;3.40;;
60241;SDS011;46103;52.076;113.488;2023-06-26T11:34:34;6.82;;;2.90;;
60241;SDS011;46103;52.076;113.488;2023-06-26T11:37:38;5.18;;;3.65;;
60241;SDS011;46103;52.076;113.488;2023-06-26T11:40:42;9.18;;;3.70;;
60241;SDS011;46103;52.076;113.488;2023-06-26T11:43:47;5.63;;;3.40;;
60241;SDS011;46103;52.076;113.488;2023-06-26T11:47:15;5.43;;;2.85;;
60241;SDS011;46103;52.076;113.488;2023-06-26T11:50:58;5.97;;;2.85;;
60241;SDS011;46103;52.076;113.488;2023-06-26T11:54:27;5.63;;;2.63;;
60241;SDS011;46103;52.076;113.488;2023-06-26T11:57:30;7.75;;;3.05;;
60241;SDS011;46103;52.076;113.488;2023-06-26T12:00:34;4.43;;;2.90;;
60241;SDS011;46103;52.076;113.488;2023-06-26T12:03:38;4.43;;;2.50;;
60241;SDS011;46103;52.076;113.488;2023-06-26T12:06:46;6.35;;;3.17;;
60241;SDS011;46103;52.076;113.488;2023-06-26T12:09:55;7.68;;;2.63;;
60241;SDS011;46103;52.076;113.488;2023-06-26T12:13:01;4.45;;;2.75;;
60241;SDS011;46103;52.076;113.488;2023-06-26T12:16:05;7.60;;;4.53;;
60241;SDS011;46103;52.076;113.488;2023-06-26T12:19:09;6.32;;;2.97;;
60241;SDS011;46103;52.076;113.488;2023-06-26T12:22:13;4.75;;;2.75;;
60241;SDS011;46103;52.076;113.488;2023-06-26T12:25:23;4.25;;;2.78;;
60241;SDS011;46103;52.076;113.488;2023-06-26T12:28:35;5.22;;;3.03;;
60241;SDS011;46103;52.076;113.488;2023-06-26T12:31:51;5.60;;;3.13;;
60241;SDS011;46103;52.076;113.488;2023-06-26T12:34:57;6.93;;;2.88;;
60241;SDS011;46103;52.076;113.488;2023-06-26T12:38:02;5.43;;;3.20;;
60241;SDS011;46103;52.076;113.488;2023-06-26T12:41:13;6.78;;;2.78;;
60241;SDS011;46103;52.076;113.488;2023-06-26T12:44:22;5.13;;;2.55;;
60241;SDS011;46103;52.076;113.488;2023-06-26T12:47:31;4.78;;;2.60;;
60241;SDS011;46103;52.076;113.488;2023-06-26T12:50:38;11.20;;;2.87;;
60241;SDS011;46103;52.076;113.488;2023-06-26T12:53:53;6.32;;;3.30;;
60241;SDS011;46103;52.076;113.488;2023-06-26T12:56:57;3.85;;;2.95;;
60241;SDS011;46103;52.076;113.488;2023-06-26T13:00:01;5.53;;;3.70;;
60241;SDS011;46103;52.076;113.488;2023-06-26T13:03:06;4.63;;;2.88;;
60241;SDS011;46103;52.076;113.488;2023-06-26T13:06:13;6.32;;;3.45;;
60241;SDS011;46103;52.076;113.488;2023-06-26T13:09:18;9.05;;;4.35;;
60241;SDS011;46103;52.076;113.488;2023-06-26T13:12:22;6.38;;;3.00;;
60241;SDS011;46103;52.076;113.488;2023-06-26T13:15:26;5.38;;;3.33;;
60241;SDS011;46103;52.076;113.488;2023-06-26T13:18:31;7.55;;;2.70;;
60241;SDS011;46103;52.076;113.488;2023-06-26T13:21:35;3.70;;;2.45;;
60241;SDS011;46103;52.076;113.488;2023-06-26T13:24:40;5.32;;;3.03;;
60241;SDS011;46103;52.076;113.488;2023-06-26T13:27:44;5.30;;;2.83;;
60241;SDS011;46103;52.076;113.488;2023-06-26T13:34:31;5.70;;;3.80;;
60241;SDS011;46103;52.076;113.488;2023-06-26T13:37:36;5.75;;;2.80;;
60241;SDS011;46103;52.076;113.488;2023-06-26T13:40:54;6.40;;;2.88;;
60241;SDS011;46103;52.076;113.488;2023-06-26T13:43:59;4.70;;;2.83;;
60241;SDS011;46103;52.076;113.488;2023-06-26T13:47:18;4.53;;;3.00;;
60241;SDS011;46103;52.076;113.488;2023-06-26T13:51:01;5.07;;;3.03;;
60241;SDS011;46103;52.076;113.488;2023-06-26T13:54:04;5.80;;;2.90;;
60241;SDS011;46103;52.076;113.488;2023-06-26T13:57:09;4.78;;;2.55;;
60241;SDS011;46103;52.076;113.488;2023-06-26T14:04:45;5.35;;;2.72;;
60241;SDS011;46103;52.076;113.488;2023-06-26T14:08:06;7.30;;;2.95;;
60241;SDS011;46103;52.076;113.488;2023-06-26T14:13:10;4.90;;;2.70;;
60241;SDS011;46103;52.076;113.488;2023-06-26T14:16:21;6.25;;;3.60;;
60241;SDS011;46103;52.076;113.488;2023-06-26T14:19:29;4.93;;;2.67;;
60241;SDS011;46103;52.076;113.488;2023-06-26T14:22:46;5.30;;;2.50;;
60241;SDS011;46103;52.076;113.488;2023-06-26T14:26:04;4.60;;;2.88;;
60241;SDS011;46103;52.076;113.488;2023-06-26T14:29:16;4.85;;;2.70;;
60241;SDS011;46103;52.076;113.488;2023-06-26T14:32:37;5.15;;;2.72;;
60241;SDS011;46103;52.076;113.488;2023-06-26T14:38:49;5.30;;;2.45;;
60241;SDS011;46103;52.076;113.488;2023-06-26T14:41:56;4.57;;;1.27;;
60241;SDS011;46103;52.076;113.488;2023-06-26T14:45:00;3.13;;;1.00;;
60241;SDS011;46103;52.076;113.488;2023-06-26T14:48:19;3.80;;;1.10;;
60241;SDS011;46103;52.076;113.488;2023-06-26T14:51:46;5.97;;;1.58;;
60241;SDS011;46103;52.076;113.488;2023-06-26T14:54:58;6.15;;;1.40;;
60241;SDS011;46103;52.076;113.488;2023-06-26T14:58:03;6.53;;;1.20;;
60241;SDS011;46103;52.076;113.488;2023-06-26T15:01:06;7.18;;;1.20;;
60241;SDS011;46103;52.076;113.488;2023-06-26T15:04:26;3.72;;;1.17;;
60241;SDS011;46103;52.076;113.488;2023-06-26T15:07:39;4.28;;;0.95;;
60241;SDS011;46103;52.076;113.488;2023-06-26T15:10:43;4.03;;;1.52;;
60241;SDS011;46103;52.076;113.488;2023-06-26T15:13:47;1.92;;;1.02;;
60241;SDS011;46103;52.076;113.488;2023-06-26T15:16:51;3.25;;;1.25;;
60241;SDS011;46103;52.076;113.488;2023-06-26T15:19:55;2.78;;;1.15;;
60241;SDS011;46103;52.076;113.488;2023-06-26T15:22:59;6.78;;;1.50;;
60241;SDS011;46103;52.076;113.488;2023-06-26T15:26:03;6.97;;;1.20;;
60241;SDS011;46103;52.076;113.488;2023-06-26T15:29:07;3.45;;;1.02;;
60241;SDS011;46103;52.076;113.488;2023-06-26T15:32:11;2.92;;;1.30;;
60241;SDS011;46103;52.076;113.488;2023-06-26T15:35:15;4.50;;;1.58;;
60241;SDS011;46103;52.076;113.488;2023-06-26T15:38:19;3.88;;;1.20;;
60241;SDS011;46103;52.076;113.488;2023-06-26T15:41:22;5.25;;;1.70;;
60241;SDS011;46103;52.076;113.488;2023-06-26T15:44:27;4.32;;;2.00;;
60241;SDS011;46103;52.076;113.488;2023-06-26T15:47:31;6.97;;;1.98;;
60241;SDS011;46103;52.076;113.488;2023-06-26T15:50:36;6.78;;;1.65;;
60241;SDS011;46103;52.076;113.488;2023-06-26T15:53:42;9.32;;;2.00;;
60241;SDS011;46103;52.076;113.488;2023-06-26T15:56:46;4.63;;;1.88;;
60241;SDS011;46103;52.076;113.488;2023-06-26T15:59:51;3.53;;;1.73;;
60241;SDS011;46103;52.076;113.488;2023-06-26T16:02:55;8.02;;;1.70;;
60241;SDS011;46103;52.076;113.488;2023-06-26T16:06:00;4.78;;;2.15;;
60241;SDS011;46103;52.076;113.488;2023-06-26T16:09:05;4.85;;;1.92;;
60241;SDS011;46103;52.076;113.488;2023-06-26T16:12:09;8.77;;;2.08;;
60241;SDS011;46103;52.076;113.488;2023-06-26T16:15:15;5.35;;;1.70;;
60241;SDS011;46103;52.076;113.488;2023-06-26T16:18:20;4.25;;;1.13;;
60241;SDS011;46103;52.076;113.488;2023-06-26T16:21:26;4.82;;;1.55;;
60241;SDS011;46103;52.076;113.488;2023-06-26T16:24:31;6.68;;;1.67;;
60241;SDS011;46103;52.076;113.488;2023-06-26T16:27:36;4.38;;;1.30;;
60241;SDS011;46103;52.076;113.488;2023-06-26T16:30:40;4.55;;;1.52;;
60241;SDS011;46103;52.076;113.488;2023-06-26T16:33:45;5.53;;;1.65;;
60241;SDS011;46103;52.076;113.488;2023-06-26T16:36:50;6.78;;;1.73;;
60241;SDS011;46103;52.076;113.488;2023-06-26T16:39:55;6.38;;;1.40;;
60241;SDS011;46103;52.076;113.488;2023-06-26T16:43:00;3.03;;;1.40;;
60241;SDS011;46103;52.076;113.488;2023-06-26T16:46:04;4.80;;;1.80;;
60241;SDS011;46103;52.076;113.488;2023-06-26T16:49:09;3.83;;;1.83;;
60241;SDS011;46103;52.076;113.488;2023-06-26T16:52:13;6.20;;;2.00;;
60241;SDS011;46103;52.076;113.488;2023-06-26T16:55:17;5.45;;;2.50;;
60241;SDS011;46103;52.076;113.488;2023-06-26T16:58:22;6.22;;;2.10;;
60241;SDS011;46103;52.076;113.488;2023-06-26T17:01:26;5.40;;;1.95;;
60241;SDS011;46103;52.076;113.488;2023-06-26T17:04:31;7.00;;;1.80;;
60241;SDS011;46103;52.076;113.488;2023-06-26T17:07:36;4.95;;;1.92;;
60241;SDS011;46103;52.076;113.488;2023-06-26T17:10:42;3.80;;;1.35;;
60241;SDS011;46103;52.076;113.488;2023-06-26T17:13:46;4.53;;;1.60;;
60241;SDS011;46103;52.076;113.488;2023-06-26T17:16:51;3.80;;;1.98;;
60241;SDS011;46103;52.076;113.488;2023-06-26T17:19:56;4.97;;;2.30;;
60241;SDS011;46103;52.076;113.488;2023-06-26T17:23:01;6.63;;;1.73;;
60241;SDS011;46103;52.076;113.488;2023-06-26T17:26:05;6.20;;;2.08;;
60241;SDS011;46103;52.076;113.488;2023-06-26T17:29:10;3.67;;;1.80;;
60241;SDS011;46103;52.076;113.488;2023-06-26T17:32:15;3.38;;;1.70;;
60241;SDS011;46103;52.076;113.488;2023-06-26T17:35:23;4.40;;;2.08;;
60241;SDS011;46103;52.076;113.488;2023-06-26T17:38:28;6.03;;;1.73;;
60241;SDS011;46103;52.076;113.488;2023-06-26T17:41:32;3.72;;;1.77;;
60241;SDS011;46103;52.076;113.488;2023-06-26T17:44:37;4.55;;;2.30;;
60241;SDS011;46103;52.076;113.488;2023-06-26T17:47:41;4.07;;;2.05;;
60241;SDS011;46103;52.076;113.488;2023-06-26T17:50:46;5.78;;;2.20;;
60241;SDS011;46103;52.076;113.488;2023-06-26T17:53:50;5.00;;;1.90;;
60241;SDS011;46103;52.076;113.488;2023-06-26T17:56:54;3.53;;;1.67;;
60241;SDS011;46103;52.076;113.488;2023-06-26T17:59:58;3.85;;;1.73;;
60241;SDS011;46103;52.076;113.488;2023-06-26T18:03:12;6.10;;;2.20;;
60241;SDS011;46103;52.076;113.488;2023-06-26T18:06:16;3.83;;;1.60;;
60241;SDS011;46103;52.076;113.488;2023-06-26T18:09:20;3.45;;;1.90;;
60241;SDS011;46103;52.076;113.488;2023-06-26T18:12:24;6.28;;;2.13;;
60241;SDS011;46103;52.076;113.488;2023-06-26T18:15:29;4.35;;;1.63;;
60241;SDS011;46103;52.076;113.488;2023-06-26T18:18:33;5.40;;;1.48;;
60241;SDS011;46103;52.076;113.488;2023-06-26T18:21:37;4.28;;;1.77;;
60241;SDS011;46103;52.076;113.488;2023-06-26T18:24:40;4.28;;;1.80;;
60241;SDS011;46103;52.076;113.488;2023-06-26T18:27:45;4.90;;;1.92;;
60241;SDS011;46103;52.076;113.488;2023-06-26T18:30:49;3.80;;;1.70;;
60241;SDS011;46103;52.076;113.488;2023-06-26T18:33:52;4.15;;;1.73;;
60241;SDS011;46103;52.076;113.488;2023-06-26T18:36:56;5.50;;;2.10;;
60241;SDS011;46103;52.076;113.488;2023-06-26T18:40:01;3.22;;;1.73;;